Time;durP1;ratioP1;P1;durP2;ratioP2;P2;SDS_P1;SDS_P2;PMS_P1;PMS_P2;Temp;Humidity;BMP_temperature;BMP_pressure;BME280_temperature;BME280_humidity;BME280_pressure;Samples;Min_cycle;Max_cycle;Signal;HPM_P1;HPM_P2
2024/01/21 00:00:42;;;;;;;;;34.75;25.50;;;;;-144.24;100.00;114865.94;5089399;27;45400;-69
2024/01/21 00:03:08;;;;;;;;;32.75;30.50;;;;;-144.24;100.00;114865.94;5091748;27;45454;-69
2024/01/21 00:05:33;;;;;;;;;32.50;25.25;;;;;-144.24;100.00;114865.94;5096553;27;46278;-69
2024/01/21 00:07:58;;;;;;;;;36.75;28.00;;;;;-144.24;100.00;114865.94;5092881;27;49662;-69
2024/01/21 00:10:24;;;;;;;;;31.00;27.25;;;;;-144.24;100.00;114865.94;5097010;27;66072;-72
2024/01/21 00:12:49;;;;;;;;;37.50;28.25;;;;;-144.24;100.00;114865.94;5096138;27;65149;-69
2024/01/21 00:15:14;;;;;;;;;33.00;24.00;;;;;-144.24;100.00;114865.94;5093630;27;46498;-72
2024/01/21 00:17:40;;;;;;;;;29.00;22.50;;;;;-144.24;100.00;114865.94;5093699;27;45445;-69
2024/01/21 00:20:06;;;;;;;;;29.00;24.00;;;;;-144.24;100.00;114865.94;5096018;27;45493;-69
2024/01/21 00:22:31;;;;;;;;;25.50;16.25;;;;;-144.24;100.00;114865.94;5096822;27;45652;-69
2024/01/21 00:24:56;;;;;;;;;23.00;19.25;;;;;-144.24;100.00;114865.94;5095869;27;46209;-69
2024/01/21 00:27:22;;;;;;;;;30.50;24.75;;;;;-144.24;100.00;114865.94;5075521;27;67531;-69
2024/01/21 00:29:47;;;;;;;;;29.50;21.25;;;;;-144.24;100.00;114865.94;5097420;27;46473;-69
2024/01/21 00:32:12;;;;;;;;;38.00;24.00;;;;;-144.24;100.00;114865.94;5096240;27;65277;-69
2024/01/21 00:34:38;;;;;;;;;21.00;20.00;;;;;-144.24;100.00;114865.94;5096348;27;69942;-69
2024/01/21 00:37:03;;;;;;;;;25.00;23.00;;;;;-144.24;100.00;114865.94;5096098;27;68873;-71
2024/01/21 00:39:28;;;;;;;;;30.50;23.25;;;;;-144.24;100.00;114865.94;5096617;27;64797;-69
2024/01/21 00:41:55;;;;;;;;;23.75;22.00;;;;;-144.24;100.00;114865.94;5097207;27;45509;-69
2024/01/21 00:44:20;;;;;;;;;25.50;20.25;;;;;-144.24;100.00;114865.94;5096937;27;46826;-69
2024/01/21 00:46:47;;;;;;;;;31.25;22.75;;;;;-144.24;100.00;114865.94;5096947;27;45430;-70
2024/01/21 00:49:12;;;;;;;;;28.25;21.75;;;;;-144.24;100.00;114865.94;5096367;27;45342;-73
2024/01/21 00:51:38;;;;;;;;;32.00;23.50;;;;;-144.24;100.00;114865.94;5077873;27;45493;-71
2024/01/21 00:54:03;;;;;;;;;29.00;21.00;;;;;-144.24;100.00;114865.94;5095782;27;72246;-69
2024/01/21 00:56:28;;;;;;;;;25.00;19.25;;;;;-144.24;100.00;114865.94;5095547;27;65274;-69
2024/01/21 00:58:54;;;;;;;;;22.50;16.00;;;;;-144.24;100.00;114865.94;5095467;27;64650;-71
2024/01/21 01:01:19;;;;;;;;;25.00;21.00;;;;;-144.24;100.00;114865.94;5096476;27;45556;-72
2024/01/21 01:03:44;;;;;;;;;27.00;20.75;;;;;-144.24;100.00;114865.94;5095224;27;72462;-69
2024/01/21 01:06:10;;;;;;;;;30.00;21.25;;;;;-144.24;100.00;114865.94;5096580;27;45193;-69
2024/01/21 01:08:35;;;;;;;;;30.00;21.00;;;;;-144.24;100.00;114865.94;5095989;27;63233;-69
2024/01/21 01:11:00;;;;;;;;;23.25;18.75;;;;;-144.24;100.00;114865.94;5096547;27;45460;-68
2024/01/21 01:13:26;;;;;;;;;23.25;17.75;;;;;-144.24;100.00;114865.94;5086969;27;52992;-69
2024/01/21 01:15:51;;;;;;;;;33.25;21.25;;;;;-144.24;100.00;114865.94;5092436;27;70429;-72
2024/01/21 01:18:17;;;;;;;;;24.00;15.00;;;;;-144.24;100.00;114865.94;5096798;27;45410;-69
2024/01/21 01:20:42;;;;;;;;;14.25;14.25;;;;;-144.24;100.00;114865.94;5096108;27;45429;-69
2024/01/21 01:23:07;;;;;;;;;17.00;17.00;;;;;-144.24;100.00;114865.94;5095540;27;72410;-68
2024/01/21 01:25:33;;;;;;;;;21.25;17.50;;;;;-144.24;100.00;114865.94;5081926;27;46947;-68
2024/01/21 01:27:58;;;;;;;;;17.00;15.00;;;;;-144.24;100.00;114865.94;5088242;27;64963;-69
2024/01/21 01:30:23;;;;;;;;;22.25;16.25;;;;;-144.24;100.00;114865.94;5095903;27;45270;-70
2024/01/21 01:32:49;;;;;;;;;22.25;18.25;;;;;-144.24;100.00;114865.94;5097022;27;45782;-70
2024/01/21 01:35:14;;;;;;;;;27.00;17.75;;;;;-144.24;100.00;114865.94;5096157;27;45461;-71
2024/01/21 01:37:39;;;;;;;;;23.25;15.25;;;;;-144.24;100.00;114865.94;5077619;27;60819;-69
2024/01/21 01:40:08;;;;;;;;;22.50;17.00;;;;;-144.24;100.00;114865.94;5096366;27;45338;-70
2024/01/21 01:42:33;;;;;;;;;21.00;16.50;;;;;-144.24;100.00;114865.94;5095866;27;46399;-69
2024/01/21 01:45:00;;;;;;;;;24.75;17.50;;;;;-144.24;100.00;114865.94;5096523;27;45441;-69
2024/01/21 01:47:25;;;;;;;;;19.00;14.75;;;;;-144.24;100.00;114865.94;5096038;27;45287;-69
2024/01/21 01:49:51;;;;;;;;;15.50;14.25;;;;;-144.24;100.00;114865.94;5096466;27;45586;-71
2024/01/21 01:52:17;;;;;;;;;16.25;12.00;;;;;-144.24;100.00;114865.94;5077376;27;62797;-69
2024/01/21 01:54:45;;;;;;;;;22.50;18.75;;;;;-144.24;100.00;114865.94;5095696;27;57425;-70
2024/01/21 01:57:10;;;;;;;;;16.50;16.50;;;;;-144.24;100.00;114865.94;5096374;27;45411;-69
2024/01/21 01:59:37;;;;;;;;;19.25;16.75;;;;;-144.24;100.00;114865.94;5095875;27;45446;-68
2024/01/21 02:02:02;;;;;;;;;18.00;16.25;;;;;-144.24;100.00;114865.94;5099777;27;47430;-69
2024/01/21 02:04:28;;;;;;;;;20.00;15.00;;;;;-144.24;100.00;114865.94;5081555;27;45482;-69
2024/01/21 02:06:53;;;;;;;;;18.50;15.25;;;;;-144.24;100.00;114865.94;5099100;27;61723;-68
2024/01/21 02:09:19;;;;;;;;;12.50;12.00;;;;;-144.24;100.00;114865.94;5099681;27;45334;-70
2024/01/21 02:11:44;;;;;;;;;23.75;17.75;;;;;-144.24;100.00;114865.94;5097178;27;58298;-72
2024/01/21 02:14:12;;;;;;;;;22.25;18.75;;;;;-144.24;100.00;114865.94;5094979;27;69712;-69
2024/01/21 02:16:38;;;;;;;;;22.00;18.00;;;;;-144.24;100.00;114865.94;5100227;27;45513;-72
2024/01/21 02:19:07;;;;;;;;;17.75;15.00;;;;;-144.24;100.00;114865.94;5098930;27;53363;-68
2024/01/21 02:21:32;;;;;;;;;24.00;17.25;;;;;-144.24;100.00;114865.94;5080987;27;46621;-70
2024/01/21 02:23:58;;;;;;;;;17.25;15.00;;;;;-144.24;100.00;114865.94;5098720;27;66780;-73
2024/01/21 02:26:23;;;;;;;;;22.00;17.50;;;;;-144.24;100.00;114865.94;5098375;27;55352;-68
2024/01/21 02:28:48;;;;;;;;;19.00;17.75;;;;;-144.24;100.00;114865.94;5098794;27;64230;-69
2024/01/21 02:31:14;;;;;;;;;16.25;15.25;;;;;-144.24;100.00;114865.94;5099289;27;45672;-69
2024/01/21 02:33:39;;;;;;;;;21.25;18.25;;;;;-144.24;100.00;114865.94;5099051;27;45366;-68
2024/01/21 02:36:05;;;;;;;;;15.50;13.25;;;;;-144.24;100.00;114865.94;5098196;27;65573;-69
2024/01/21 02:38:30;;;;;;;;;17.50;15.00;;;;;-144.24;100.00;114865.94;5098915;27;45517;-68
2024/01/21 02:40:55;;;;;;;;;24.75;18.00;;;;;-144.24;100.00;114865.94;5098587;27;64453;-69
2024/01/21 02:43:21;;;;;;;;;21.00;17.25;;;;;-144.24;100.00;114865.94;5097863;27;64563;-70
2024/01/21 02:45:46;;;;;;;;;18.25;13.00;;;;;-144.24;100.00;114865.94;5099125;27;49370;-68
2024/01/21 02:48:11;;;;;;;;;22.00;19.00;;;;;-144.24;100.00;114865.94;5098344;27;62586;-69
2024/01/21 02:50:36;;;;;;;;;19.25;15.00;;;;;-144.24;100.00;114865.94;5097498;27;71061;-71
2024/01/21 02:53:02;;;;;;;;;21.00;18.50;;;;;-144.24;100.00;114865.94;5097803;27;68115;-69
2024/01/21 02:55:27;;;;;;;;;17.00;14.25;;;;;-144.24;100.00;114865.94;5095936;27;45451;-69
2024/01/21 02:57:52;;;;;;;;;22.75;12.75;;;;;-144.24;100.00;114865.94;5097985;27;56722;-69
2024/01/21 03:00:18;;;;;;;;;16.00;13.75;;;;;-144.24;100.00;114865.94;5098070;27;64778;-69
2024/01/21 03:02:44;;;;;;;;;19.00;16.00;;;;;-144.24;100.00;114865.94;5098453;27;45192;-69
2024/01/21 03:05:09;;;;;;;;;21.50;18.50;;;;;-144.24;100.00;114865.94;5098551;27;57384;-69
2024/01/21 03:07:34;;;;;;;;;17.50;16.75;;;;;-144.24;100.00;114865.94;5098230;27;55420;-71
2024/01/21 03:10:00;;;;;;;;;18.75;16.00;;;;;-144.24;100.00;114865.94;5097675;27;62582;-69
2024/01/21 03:12:25;;;;;;;;;20.50;15.00;;;;;-144.24;100.00;114865.94;5097704;27;45326;-71
2024/01/21 03:14:50;;;;;;;;;21.75;17.75;;;;;-144.24;100.00;114865.94;5098087;27;54265;-70
2024/01/21 03:17:16;;;;;;;;;21.75;14.00;;;;;-144.24;100.00;114865.94;5098062;27;60317;-71
2024/01/21 03:19:41;;;;;;;;;27.25;16.25;;;;;-144.24;100.00;114865.94;5098097;27;45730;-69
2024/01/21 03:22:06;;;;;;;;;21.75;16.50;;;;;-144.24;100.00;114865.94;5097810;27;69427;-69
2024/01/21 03:24:32;;;;;;;;;17.25;15.00;;;;;-144.24;100.00;114865.94;5097334;27;67887;-69
2024/01/21 03:26:57;;;;;;;;;16.00;14.25;;;;;-144.24;100.00;114865.94;5098386;27;45478;-70
2024/01/21 03:29:23;;;;;;;;;18.00;14.00;;;;;-144.24;100.00;114865.94;5097810;27;66998;-71
2024/01/21 03:31:48;;;;;;;;;19.00;15.50;;;;;-144.24;100.00;114865.94;5098174;27;45540;-68
2024/01/21 03:34:14;;;;;;;;;9.00;8.50;;;;;-144.24;100.00;114865.94;5098663;27;45445;-69
2024/01/21 03:36:39;;;;;;;;;19.75;14.00;;;;;-144.24;100.00;114865.94;5098239;27;45419;-69
2024/01/21 03:39:05;;;;;;;;;19.25;14.75;;;;;-144.24;100.00;114865.94;5098488;27;46273;-71
2024/01/21 03:41:30;;;;;;;;;15.50;14.25;;;;;-144.24;100.00;114865.94;5098556;27;45298;-73
2024/01/21 03:43:56;;;;;;;;;17.00;14.75;;;;;-144.24;100.00;114865.94;5096474;27;60084;-69
2024/01/21 03:46:22;;;;;;;;;11.25;8.75;;;;;-144.24;100.00;114865.94;5098517;27;45430;-70
2024/01/21 03:48:47;;;;;;;;;15.00;11.00;;;;;-144.24;100.00;114865.94;5098015;27;45384;-69
2024/01/21 03:51:12;;;;;;;;;18.50;11.75;;;;;-144.24;100.00;114865.94;5096283;27;45313;-69
2024/01/21 03:53:39;;;;;;;;;17.25;14.00;;;;;-144.24;100.00;114865.94;5080826;27;45449;-70
2024/01/21 03:56:05;;;;;;;;;18.50;15.00;;;;;-144.24;100.00;114865.94;5097720;27;45520;-69
2024/01/21 03:58:31;;;;;;;;;19.00;12.50;;;;;-144.24;100.00;114865.94;5097875;27;47767;-69
2024/01/21 04:00:56;;;;;;;;;17.75;13.00;;;;;-144.24;100.00;114865.94;5097435;27;45465;-68
2024/01/21 04:03:22;;;;;;;;;17.25;11.50;;;;;-144.24;100.00;114865.94;5096826;27;45308;-68
2024/01/21 04:05:47;;;;;;;;;13.25;13.00;;;;;-144.24;100.00;114865.94;5097158;27;62905;-69
2024/01/21 04:08:12;;;;;;;;;13.75;12.00;;;;;-144.24;100.00;114865.94;5096275;27;66147;-72
2024/01/21 04:10:39;;;;;;;;;17.00;13.00;;;;;-144.24;100.00;114865.94;5097727;27;45310;-69
2024/01/21 04:13:04;;;;;;;;;18.50;12.00;;;;;-144.24;100.00;114865.94;5097752;27;45445;-69
2024/01/21 04:15:30;;;;;;;;;11.00;8.75;;;;;-144.24;100.00;114865.94;5096962;27;51423;-71
2024/01/21 04:17:55;;;;;;;;;12.00;10.00;;;;;-144.24;100.00;114865.94;5097195;27;54679;-69
2024/01/21 04:20:20;;;;;;;;;17.50;12.00;;;;;-144.24;100.00;114865.94;5097348;27;45497;-72
2024/01/21 04:22:46;;;;;;;;;18.50;15.25;;;;;-144.24;100.00;114865.94;5096720;27;65182;-69
2024/01/21 04:25:11;;;;;;;;;18.75;13.50;;;;;-144.24;100.00;114865.94;5095469;27;62324;-72
2024/01/21 04:27:36;;;;;;;;;15.00;12.25;;;;;-144.24;100.00;114865.94;5096826;27;49853;-69
2024/01/21 04:30:02;;;;;;;;;13.25;11.00;;;;;-144.24;100.00;114865.94;5079379;27;45472;-69
2024/01/21 04:32:27;;;;;;;;;11.25;11.25;;;;;-144.24;100.00;114865.94;5097315;27;45512;-69
2024/01/21 04:34:53;;;;;;;;;18.50;13.00;;;;;-144.24;100.00;114865.94;5078151;27;63762;-69
2024/01/21 04:37:18;;;;;;;;;21.50;15.25;;;;;-144.24;100.00;114865.94;5096297;27;68691;-70
2024/01/21 04:39:44;;;;;;;;;13.75;12.75;;;;;-144.24;100.00;114865.94;5097390;27;45262;-69
2024/01/21 04:42:09;;;;;;;;;14.50;13.00;;;;;-144.24;100.00;114865.94;5097322;27;45499;-69
2024/01/21 04:44:34;;;;;;;;;16.25;12.00;;;;;-144.24;100.00;114865.94;5097322;27;45507;-71
2024/01/21 04:47:00;;;;;;;;;14.75;12.00;;;;;-144.24;100.00;114865.94;5097050;27;48044;-69
2024/01/21 04:49:25;;;;;;;;;13.25;8.25;;;;;-144.24;100.00;114865.94;5096475;27;58200;-69
2024/01/21 04:51:50;;;;;;;;;21.25;11.00;;;;;-144.24;100.00;114865.94;5096264;27;64619;-69
2024/01/21 04:54:16;;;;;;;;;13.75;12.25;;;;;-144.24;100.00;114865.94;5094553;27;45268;-69
2024/01/21 04:56:41;;;;;;;;;12.25;9.50;;;;;-144.24;100.00;114865.94;5096423;27;46505;-69
2024/01/21 04:59:06;;;;;;;;;14.25;11.50;;;;;-144.24;100.00;114865.94;5095395;27;69453;-69
2024/01/21 05:01:32;;;;;;;;;12.75;12.75;;;;;-144.24;100.00;114865.94;5096102;27;45500;-69
2024/01/21 05:03:57;;;;;;;;;6.25;5.00;;;;;-144.24;100.00;114865.94;5097864;27;46239;-68
2024/01/21 05:06:23;;;;;;;;;19.50;13.00;;;;;-144.24;100.00;114865.94;5096179;27;65863;-71
2024/01/21 05:08:48;;;;;;;;;14.75;10.25;;;;;-144.24;100.00;114865.94;5096570;27;45559;-71
2024/01/21 05:11:14;;;;;;;;;11.50;10.75;;;;;-144.24;100.00;114865.94;5097071;27;45580;-70
2024/01/21 05:13:39;;;;;;;;;13.75;11.00;;;;;-144.24;100.00;114865.94;5096947;27;45417;-71
2024/01/21 05:16:05;;;;;;;;;10.75;8.50;;;;;-144.24;100.00;114865.94;5078009;27;47345;-69
2024/01/21 05:18:30;;;;;;;;;11.00;10.25;;;;;-144.24;100.00;114865.94;5096868;27;45294;-71
2024/01/21 05:20:55;;;;;;;;;11.75;7.00;;;;;-144.24;100.00;114865.94;5096222;27;55606;-70
2024/01/21 05:23:21;;;;;;;;;11.75;8.50;;;;;-144.24;100.00;114865.94;5075792;27;64787;-69
2024/01/21 05:25:50;;;;;;;;;16.50;12.50;;;;;-144.24;100.00;114865.94;5094779;27;69366;-69
2024/01/21 05:28:16;;;;;;;;;10.50;9.50;;;;;-144.24;100.00;114865.94;5096433;27;45385;-68
2024/01/21 05:30:41;;;;;;;;;15.75;10.75;;;;;-144.24;100.00;114865.94;5089736;27;45345;-69
2024/01/21 05:33:06;;;;;;;;;17.75;13.25;;;;;-144.24;100.00;114865.94;5096573;27;45563;-72
2024/01/21 05:35:31;;;;;;;;;12.00;11.75;;;;;-144.24;100.00;114865.94;5096856;27;60554;-71
2024/01/21 05:37:57;;;;;;;;;11.50;11.50;;;;;-144.24;100.00;114865.94;5100611;27;45429;-70
2024/01/21 05:40:22;;;;;;;;;14.50;11.50;;;;;-144.24;100.00;114865.94;5099361;27;56277;-73
2024/01/21 05:42:47;;;;;;;;;11.50;9.75;;;;;-144.24;100.00;114865.94;5082209;27;45328;-69
2024/01/21 05:45:13;;;;;;;;;14.25;9.75;;;;;-144.24;100.00;114865.94;5099149;27;68944;-69
2024/01/21 05:47:38;;;;;;;;;9.75;9.00;;;;;-144.24;100.00;114865.94;5099049;27;66614;-70
2024/01/21 05:50:04;;;;;;;;;9.75;9.00;;;;;-144.24;100.00;114865.94;5100109;27;45299;-70
2024/01/21 05:52:29;;;;;;;;;9.00;9.00;;;;;-144.24;100.00;114865.94;5099755;27;45282;-70
2024/01/21 05:54:55;;;;;;;;;9.00;9.00;;;;;-144.24;100.00;114865.94;5096399;27;64525;-72
2024/01/21 05:57:20;;;;;;;;;12.00;9.25;;;;;-144.24;100.00;114865.94;5098996;27;67400;-68
2024/01/21 05:59:45;;;;;;;;;9.00;9.00;;;;;-144.24;100.00;114865.94;5099204;27;45298;-68
2024/01/21 06:02:11;;;;;;;;;11.75;9.00;;;;;-144.24;100.00;114865.94;5099909;27;45367;-69
2024/01/21 06:04:37;;;;;;;;;9.00;9.00;;;;;-144.24;100.00;114865.94;5098491;27;72658;-69
2024/01/21 06:07:02;;;;;;;;;8.00;8.00;;;;;-144.24;100.00;114865.94;5081549;27;45476;-71
2024/01/21 06:09:28;;;;;;;;;14.50;9.00;;;;;-144.24;100.00;114865.94;5099789;27;45422;-69
2024/01/21 06:11:53;;;;;;;;;13.75;9.25;;;;;-144.24;100.00;114865.94;5099658;27;45656;-71
2024/01/21 06:14:19;;;;;;;;;10.50;9.00;;;;;-144.24;100.00;114865.94;5098641;27;71530;-69
2024/01/21 06:16:44;;;;;;;;;8.50;8.50;;;;;-144.24;100.00;114865.94;5099416;27;45185;-69
2024/01/21 06:19:09;;;;;;;;;8.50;8.00;;;;;-144.24;100.00;114865.94;5098990;27;61151;-71
2024/01/21 06:21:42;;;;;;;;;10.00;9.00;;;;;-144.24;100.00;114865.94;5098845;27;56910;-70
2024/01/21 06:24:07;;;;;;;;;10.75;10.25;;;;;-144.24;100.00;114865.94;5099291;27;46606;-69
2024/01/21 06:26:32;;;;;;;;;12.75;9.75;;;;;-144.24;100.00;114865.94;5080348;27;53444;-68
2024/01/21 06:28:58;;;;;;;;;10.50;8.00;;;;;-144.24;100.00;114865.94;5099112;27;45272;-70
2024/01/21 06:31:23;;;;;;;;;9.00;9.00;;;;;-144.24;100.00;114865.94;5099697;27;45185;-69
2024/01/21 06:33:49;;;;;;;;;11.75;9.00;;;;;-144.24;100.00;114865.94;5098622;27;71858;-69
2024/01/21 06:36:14;;;;;;;;;12.25;9.50;;;;;-144.24;100.00;114865.94;5080844;27;47034;-71
2024/01/21 06:38:39;;;;;;;;;10.25;7.50;;;;;-144.24;100.00;114865.94;5080624;27;53425;-71
2024/01/21 06:41:05;;;;;;;;;11.00;8.50;;;;;-144.24;100.00;114865.94;5099046;27;45498;-69
2024/01/21 06:43:30;;;;;;;;;9.50;9.50;;;;;-144.24;100.00;114865.94;5098525;27;66626;-69
2024/01/21 06:45:55;;;;;;;;;8.50;6.00;;;;;-144.24;100.00;114865.94;5097916;27;52185;-69
2024/01/21 06:48:21;;;;;;;;;8.50;8.50;;;;;-144.24;100.00;114865.94;5098431;27;45515;-69
2024/01/21 06:50:48;;;;;;;;;6.00;5.50;;;;;-144.24;100.00;114865.94;5099038;27;45422;-70
2024/01/21 06:53:15;;;;;;;;;16.00;9.25;;;;;-144.24;100.00;114865.94;5095450;27;45849;-71
2024/01/21 06:55:40;;;;;;;;;11.75;8.00;;;;;-144.24;100.00;114865.94;5099087;27;45484;-72
2024/01/21 06:58:06;;;;;;;;;8.00;8.00;;;;;-144.24;100.00;114865.94;5098857;27;45639;-70
2024/01/21 07:00:31;;;;;;;;;15.25;11.50;;;;;-144.24;100.00;114865.94;5097667;27;64535;-71
2024/01/21 07:02:56;;;;;;;;;8.00;8.00;;;;;-144.24;100.00;114865.94;5097894;27;66835;-69
2024/01/21 07:05:21;;;;;;;;;8.00;8.00;;;;;-144.24;100.00;114865.94;5097764;27;72693;-69
2024/01/21 07:07:47;;;;;;;;;10.75;9.75;;;;;-144.24;100.00;114865.94;5098857;27;45929;-70
2024/01/21 07:10:13;;;;;;;;;14.00;11.00;;;;;-144.24;100.00;114865.94;5079682;27;59042;-69
2024/01/21 07:12:38;;;;;;;;;13.00;9.00;;;;;-144.24;100.00;114865.94;5097996;27;66688;-69
2024/01/21 07:15:04;;;;;;;;;15.75;8.75;;;;;-144.24;100.00;114865.94;5098591;27;45593;-72
2024/01/21 07:17:29;;;;;;;;;11.50;9.25;;;;;-144.24;100.00;114865.94;5098199;27;45187;-69
2024/01/21 07:19:54;;;;;;;;;8.25;8.00;;;;;-144.24;100.00;114865.94;5097818;27;63065;-70
2024/01/21 07:22:20;;;;;;;;;10.75;8.50;;;;;-144.24;100.00;114865.94;5097651;27;67048;-69
2024/01/21 07:24:45;;;;;;;;;11.00;9.25;;;;;-144.24;100.00;114865.94;5098626;27;45313;-69
2024/01/21 07:27:11;;;;;;;;;9.00;6.00;;;;;-144.24;100.00;114865.94;5097205;27;67655;-69
2024/01/21 07:29:36;;;;;;;;;15.00;11.00;;;;;-144.24;100.00;114865.94;5097621;27;63067;-70
2024/01/21 07:32:01;;;;;;;;;12.00;9.25;;;;;-144.24;100.00;114865.94;5097785;27;53111;-73
2024/01/21 07:34:27;;;;;;;;;12.00;8.50;;;;;-144.24;100.00;114865.94;5098449;27;45249;-71
2024/01/21 07:36:53;;;;;;;;;14.00;9.25;;;;;-144.24;100.00;114865.94;5098352;27;45383;-72
2024/01/21 07:39:18;;;;;;;;;11.00;10.00;;;;;-144.24;100.00;114865.94;5080304;27;45552;-69
2024/01/21 07:41:43;;;;;;;;;15.25;10.00;;;;;-144.24;100.00;114865.94;5096893;27;69695;-72
2024/01/21 07:44:09;;;;;;;;;10.00;9.00;;;;;-144.24;100.00;114865.94;5098124;27;45452;-72
2024/01/21 07:46:34;;;;;;;;;18.50;12.50;;;;;-144.24;100.00;114865.94;5097302;27;63343;-69
2024/01/21 07:48:59;;;;;;;;;9.50;9.25;;;;;-144.24;100.00;114865.94;5097149;27;67306;-72
2024/01/21 07:51:25;;;;;;;;;9.25;8.00;;;;;-144.24;100.00;114865.94;5098199;27;51293;-72
2024/01/21 07:53:51;;;;;;;;;18.75;12.50;;;;;-144.24;100.00;114865.94;5076746;27;45257;-69
2024/01/21 07:56:16;;;;;;;;;10.00;6.50;;;;;-144.24;100.00;114865.94;5098498;27;45418;-69
2024/01/21 07:58:41;;;;;;;;;14.75;11.00;;;;;-144.24;100.00;114865.94;5097202;27;65810;-68
2024/01/21 08:01:11;;;;;;;;;11.50;9.75;;;;;-144.24;100.00;114865.94;5097410;27;45603;-70
2024/01/21 08:03:38;;;;;;;;;10.00;10.00;;;;;-144.24;100.00;114865.94;5097913;27;45303;-68
2024/01/21 08:06:05;;;;;;;;;12.50;9.75;;;;;-144.24;100.00;114865.94;5097837;27;45280;-70
2024/01/21 08:08:30;;;;;;;;;13.50;11.50;;;;;-144.24;100.00;114865.94;5097911;27;45458;-69
2024/01/21 08:10:56;;;;;;;;;10.25;9.25;;;;;-144.24;100.00;114865.94;5096275;27;62374;-70
2024/01/21 08:13:21;;;;;;;;;13.00;12.75;;;;;-144.24;100.00;114865.94;5097103;27;45431;-71
2024/01/21 08:15:47;;;;;;;;;12.50;10.50;;;;;-144.24;100.00;114865.94;5096830;27;67551;-68
2024/01/21 08:18:13;;;;;;;;;9.75;9.75;;;;;-144.24;100.00;114865.94;5097372;27;45511;-68
2024/01/21 08:20:38;;;;;;;;;13.75;11.75;;;;;-144.24;100.00;114865.94;5097627;27;46810;-68
2024/01/21 08:23:03;;;;;;;;;15.25;13.75;;;;;-144.24;100.00;114865.94;5097786;27;45320;-70
2024/01/21 08:25:29;;;;;;;;;13.25;10.00;;;;;-144.24;100.00;114865.94;5094840;27;64164;-71
2024/01/21 08:27:54;;;;;;;;;13.25;9.25;;;;;-144.24;100.00;114865.94;5096716;27;64351;-70
2024/01/21 08:30:19;;;;;;;;;10.00;9.00;;;;;-144.24;100.00;114865.94;5096241;27;68134;-68
2024/01/21 08:32:45;;;;;;;;;15.50;10.00;;;;;-144.24;100.00;114865.94;5095915;27;73662;-69
2024/01/21 08:35:10;;;;;;;;;9.25;9.25;;;;;-144.24;100.00;114865.94;5096458;27;60332;-71
2024/01/21 08:37:35;;;;;;;;;13.25;9.00;;;;;-144.24;100.00;114865.94;5097320;27;45279;-68
2024/01/21 08:40:01;;;;;;;;;9.25;9.25;;;;;-144.24;100.00;114865.94;5089549;27;61006;-68
2024/01/21 08:42:27;;;;;;;;;12.25;10.00;;;;;-144.24;100.00;114865.94;5096339;27;66610;-69
2024/01/21 08:44:52;;;;;;;;;13.75;10.00;;;;;-144.24;100.00;114865.94;5097243;27;45282;-69
2024/01/21 08:47:18;;;;;;;;;12.75;10.00;;;;;-144.24;100.00;114865.94;5096895;27;45503;-70
2024/01/21 08:49:43;;;;;;;;;15.50;10.50;;;;;-144.24;100.00;114865.94;5096975;27;46399;-68
2024/01/21 08:52:08;;;;;;;;;8.50;8.50;;;;;-144.24;100.00;114865.94;5097156;27;45301;-70
2024/01/21 08:54:34;;;;;;;;;9.75;9.50;;;;;-144.24;100.00;114865.94;5093485;27;45289;-68
2024/01/21 08:56:59;;;;;;;;;11.00;8.25;;;;;-144.24;100.00;114865.94;5090424;27;63180;-72
2024/01/21 08:59:24;;;;;;;;;12.75;10.50;;;;;-144.24;100.00;114865.94;5095563;27;66066;-69
2024/01/21 09:01:50;;;;;;;;;10.50;9.00;;;;;-144.24;100.00;114865.94;5096965;27;45434;-68
2024/01/21 09:04:15;;;;;;;;;13.00;10.50;;;;;-144.24;100.00;114865.94;5096711;27;45367;-70
2024/01/21 09:06:41;;;;;;;;;13.50;11.25;;;;;-144.24;100.00;114865.94;5088141;27;54489;-71
2024/01/21 09:09:11;;;;;;;;;9.00;9.00;;;;;-144.24;100.00;114865.94;5092727;27;46773;-71
2024/01/21 09:11:38;;;;;;;;;13.00;9.00;;;;;-144.24;100.00;114865.94;5090698;27;45493;-67
2024/01/21 09:14:03;;;;;;;;;13.25;10.25;;;;;-144.24;100.00;114865.94;5096666;27;45394;-70
2024/01/21 09:16:29;;;;;;;;;17.25;10.50;;;;;-144.24;100.00;114865.94;5075372;27;45614;-67
2024/01/21 09:18:55;;;;;;;;;10.00;9.00;;;;;-144.24;100.00;114865.94;5094125;27;47336;-68
2024/01/21 09:21:20;;;;;;;;;9.25;9.25;;;;;-144.24;100.00;114865.94;5093101;27;45417;-68
2024/01/21 09:23:46;;;;;;;;;12.00;9.75;;;;;-144.24;100.00;114865.94;5091653;27;63202;-68
2024/01/21 09:26:11;;;;;;;;;2.75;2.75;;;;;-144.24;100.00;114865.94;5095003;27;45432;-69
2024/01/21 09:28:36;;;;;;;;;17.00;10.25;;;;;-144.24;100.00;114865.94;5094075;27;52035;-68
2024/01/21 09:31:02;;;;;;;;;8.00;6.75;;;;;-144.24;100.00;114865.94;5095421;27;45454;-69
2024/01/21 09:33:28;;;;;;;;;9.25;7.50;;;;;-144.24;100.00;114865.94;5089373;27;45354;-67
2024/01/21 09:35:53;;;;;;;;;15.50;13.25;;;;;-144.24;100.00;114865.94;5092868;27;45441;-70
2024/01/21 09:38:21;;;;;;;;;9.50;8.50;;;;;-144.24;100.00;114865.94;5093240;27;67506;-68
2024/01/21 09:40:53;;;;;;;;;9.75;9.25;;;;;-144.24;100.00;114865.94;5091749;27;45431;-68
2024/01/21 09:43:20;;;;;;;;;10.50;10.00;;;;;-144.24;100.00;114865.94;5096309;27;45406;-68
2024/01/21 09:45:45;;;;;;;;;9.00;9.00;;;;;-144.24;100.00;114865.94;5091568;27;45465;-72
2024/01/21 09:48:11;;;;;;;;;13.00;9.75;;;;;-144.24;100.00;114865.94;5071533;27;45667;-68
2024/01/21 09:50:37;;;;;;;;;11.25;9.00;;;;;-144.24;100.00;114865.94;5093085;27;60418;-68
2024/01/21 09:53:04;;;;;;;;;10.50;8.00;;;;;-144.24;100.00;114865.94;5065612;27;45400;-71
2024/01/21 09:55:29;;;;;;;;;13.75;10.25;;;;;-144.24;100.00;114865.94;5079022;27;45431;-69
2024/01/21 09:57:56;;;;;;;;;11.75;10.00;;;;;-144.24;100.00;114865.94;5092982;27;73879;-73
2024/01/21 10:00:22;;;;;;;;;10.00;8.50;;;;;-144.24;100.00;114865.94;5095215;27;46041;-71
2024/01/21 10:02:49;;;;;;;;;10.00;10.00;;;;;-144.24;100.00;114865.94;5083306;27;69781;-70
2024/01/21 10:05:14;;;;;;;;;5.00;2.50;;;;;-144.24;100.00;114865.94;5081494;27;45551;-67
2024/01/21 10:07:40;;;;;;;;;10.25;7.00;;;;;-144.24;100.00;114865.94;5187447;22;45554;-75
2024/01/21 10:10:07;;;;;;;;;7.25;7.00;;;;;-144.24;100.00;114865.94;5064262;28;45309;-70
2024/01/21 10:12:33;;;;;;;;;13.50;10.25;;;;;-144.24;100.00;114865.94;5058144;28;45506;-67
2024/01/21 10:14:58;;;;;;;;;17.25;11.00;;;;;-144.24;100.00;114865.94;5058161;28;45515;-74
2024/01/21 10:17:25;;;;;;;;;14.25;11.75;;;;;-144.24;100.00;114865.94;5056752;28;49238;-71
2024/01/21 10:19:53;;;;;;;;;16.50;9.75;;;;;-144.24;100.00;114865.94;5055051;28;45319;-72
2024/01/21 10:22:18;;;;;;;;;13.25;10.00;;;;;-144.24;100.00;114865.94;5057802;28;45550;-68
2024/01/21 10:24:46;;;;;;;;;11.00;9.25;;;;;-144.24;100.00;114865.94;5071252;28;45543;-68
2024/01/21 10:27:12;;;;;;;;;11.00;9.50;;;;;-144.24;100.00;114865.94;5061863;28;46350;-69
2024/01/21 10:29:43;;;;;;;;;9.00;6.75;;;;;-144.24;100.00;114865.94;5076038;28;45370;-72
2024/01/21 10:32:12;;;;;;;;;10.00;10.00;;;;;-144.24;100.00;114865.94;5062033;28;45497;-67
2024/01/21 10:34:45;;;;;;;;;7.50;7.50;;;;;-144.24;100.00;114865.94;5068660;28;45314;-69
2024/01/21 10:37:14;;;;;;;;;10.25;9.25;;;;;-144.24;100.00;114865.94;5058513;28;45521;-68
2024/01/21 10:39:40;;;;;;;;;8.25;6.00;;;;;-144.24;100.00;114865.94;5058075;28;45299;-70
2024/01/21 10:42:06;;;;;;;;;9.00;9.00;;;;;-144.24;100.00;114865.94;5050991;28;54902;-70